sensor_id;sensor_type;location;lat;lon;timestamp;P1;durP1;ratioP1;P2;durP2;ratioP2
22648;SDS011;11491;41.942;24.220;2023-12-07T00:02:11;32.70;;;20.25;;
22648;SDS011;11491;41.942;24.220;2023-12-07T00:04:38;26.60;;;15.50;;
22648;SDS011;11491;41.942;24.220;2023-12-07T00:07:05;22.67;;;15.07;;
22648;SDS011;11491;41.942;24.220;2023-12-07T00:09:33;15.73;;;9.65;;
22648;SDS011;11491;41.942;24.220;2023-12-07T00:11:59;18.70;;;12.55;;
22648;SDS011;11491;41.942;24.220;2023-12-07T00:14:26;21.38;;;13.07;;
22648;SDS011;11491;41.942;24.220;2023-12-07T00:16:53;19.73;;;11.95;;
22648;SDS011;11491;41.942;24.220;2023-12-07T00:19:20;18.60;;;12.10;;
22648;SDS011;11491;41.942;24.220;2023-12-07T00:21:47;24.83;;;15.68;;
22648;SDS011;11491;41.942;24.220;2023-12-07T00:24:13;26.02;;;15.75;;
22648;SDS011;11491;41.942;24.220;2023-12-07T00:26:41;29.45;;;16.60;;
22648;SDS011;11491;41.942;24.220;2023-12-07T00:29:08;26.60;;;15.48;;
22648;SDS011;11491;41.942;24.220;2023-12-07T00:31:35;26.25;;;15.10;;
22648;SDS011;11491;41.942;24.220;2023-12-07T00:34:02;21.40;;;12.02;;
22648;SDS011;11491;41.942;24.220;2023-12-07T00:36:29;20.40;;;12.02;;
22648;SDS011;11491;41.942;24.220;2023-12-07T00:38:56;27.90;;;16.30;;
22648;SDS011;11491;41.942;24.220;2023-12-07T00:41:22;27.00;;;15.38;;
22648;SDS011;11491;41.942;24.220;2023-12-07T00:43:51;20.70;;;13.90;;
22648;SDS011;11491;41.942;24.220;2023-12-07T00:46:17;30.30;;;18.98;;
22648;SDS011;11491;41.942;24.220;2023-12-07T00:48:44;20.85;;;11.98;;
22648;SDS011;11491;41.942;24.220;2023-12-07T00:51:11;18.38;;;11.60;;
22648;SDS011;11491;41.942;24.220;2023-12-07T00:53:37;23.67;;;13.13;;
22648;SDS011;11491;41.942;24.220;2023-12-07T00:56:04;26.70;;;15.48;;
22648;SDS011;11491;41.942;24.220;2023-12-07T00:58:32;20.60;;;12.30;;
22648;SDS011;11491;41.942;24.220;2023-12-07T01:01:00;14.23;;;9.00;;
22648;SDS011;11491;41.942;24.220;2023-12-07T01:03:28;19.42;;;12.20;;
22648;SDS011;11491;41.942;24.220;2023-12-07T01:05:55;19.48;;;11.48;;
22648;SDS011;11491;41.942;24.220;2023-12-07T01:08:21;18.23;;;10.77;;
22648;SDS011;11491;41.942;24.220;2023-12-07T01:10:48;15.05;;;9.95;;
22648;SDS011;11491;41.942;24.220;2023-12-07T01:13:15;17.42;;;9.68;;
22648;SDS011;11491;41.942;24.220;2023-12-07T01:15:42;12.75;;;7.80;;
22648;SDS011;11491;41.942;24.220;2023-12-07T01:18:10;7.82;;;4.93;;
22648;SDS011;11491;41.942;24.220;2023-12-07T01:20:36;5.85;;;3.53;;
22648;SDS011;11491;41.942;24.220;2023-12-07T01:23:03;11.70;;;6.75;;
22648;SDS011;11491;41.942;24.220;2023-12-07T01:25:30;10.65;;;6.50;;
22648;SDS011;11491;41.942;24.220;2023-12-07T01:27:56;10.45;;;5.35;;
22648;SDS011;11491;41.942;24.220;2023-12-07T01:30:23;7.72;;;4.35;;
22648;SDS011;11491;41.942;24.220;2023-12-07T01:32:50;5.57;;;4.03;;
22648;SDS011;11491;41.942;24.220;2023-12-07T01:35:18;6.72;;;4.45;;
22648;SDS011;11491;41.942;24.220;2023-12-07T01:37:45;6.40;;;4.70;;
22648;SDS011;11491;41.942;24.220;2023-12-07T01:40:12;7.20;;;4.40;;
22648;SDS011;11491;41.942;24.220;2023-12-07T01:42:40;5.50;;;3.78;;
22648;SDS011;11491;41.942;24.220;2023-12-07T01:45:15;5.95;;;4.72;;
22648;SDS011;11491;41.942;24.220;2023-12-07T01:47:42;12.27;;;8.60;;
22648;SDS011;11491;41.942;24.220;2023-12-07T01:50:09;10.43;;;6.40;;
22648;SDS011;11491;41.942;24.220;2023-12-07T01:52:44;9.30;;;6.47;;
22648;SDS011;11491;41.942;24.220;2023-12-07T01:55:13;11.27;;;6.80;;
22648;SDS011;11491;41.942;24.220;2023-12-07T01:57:41;13.25;;;8.35;;
22648;SDS011;11491;41.942;24.220;2023-12-07T02:00:08;13.57;;;8.13;;
22648;SDS011;11491;41.942;24.220;2023-12-07T02:02:36;13.48;;;8.48;;
22648;SDS011;11491;41.942;24.220;2023-12-07T02:05:04;13.48;;;7.80;;
22648;SDS011;11491;41.942;24.220;2023-12-07T02:07:31;11.63;;;7.97;;
22648;SDS011;11491;41.942;24.220;2023-12-07T02:10:01;17.00;;;9.80;;
22648;SDS011;11491;41.942;24.220;2023-12-07T02:12:29;20.67;;;10.10;;
22648;SDS011;11491;41.942;24.220;2023-12-07T02:14:55;18.60;;;10.07;;
22648;SDS011;11491;41.942;24.220;2023-12-07T02:17:24;18.80;;;10.30;;
22648;SDS011;11491;41.942;24.220;2023-12-07T02:19:55;13.15;;;7.68;;
22648;SDS011;11491;41.942;24.220;2023-12-07T02:22:28;15.00;;;7.95;;
22648;SDS011;11491;41.942;24.220;2023-12-07T02:25:06;13.13;;;8.27;;
22648;SDS011;11491;41.942;24.220;2023-12-07T02:27:38;18.08;;;9.23;;
22648;SDS011;11491;41.942;24.220;2023-12-07T02:30:07;15.57;;;9.73;;
22648;SDS011;11491;41.942;24.220;2023-12-07T02:32:35;19.23;;;13.57;;
22648;SDS011;11491;41.942;24.220;2023-12-07T02:35:05;22.67;;;15.18;;
22648;SDS011;11491;41.942;24.220;2023-12-07T02:37:36;22.08;;;13.07;;
22648;SDS011;11491;41.942;24.220;2023-12-07T02:40:07;20.38;;;12.07;;
22648;SDS011;11491;41.942;24.220;2023-12-07T02:42:36;17.50;;;11.60;;
22648;SDS011;11491;41.942;24.220;2023-12-07T02:45:06;19.45;;;12.10;;
22648;SDS011;11491;41.942;24.220;2023-12-07T02:47:34;14.27;;;9.38;;
22648;SDS011;11491;41.942;24.220;2023-12-07T02:50:01;14.13;;;10.57;;
22648;SDS011;11491;41.942;24.220;2023-12-07T02:52:28;13.98;;;10.48;;
22648;SDS011;11491;41.942;24.220;2023-12-07T02:54:55;16.52;;;10.98;;
22648;SDS011;11491;41.942;24.220;2023-12-07T02:57:22;13.57;;;8.65;;
22648;SDS011;11491;41.942;24.220;2023-12-07T02:59:50;10.35;;;6.95;;
22648;SDS011;11491;41.942;24.220;2023-12-07T03:02:16;10.75;;;7.30;;
22648;SDS011;11491;41.942;24.220;2023-12-07T03:04:44;16.17;;;10.30;;
22648;SDS011;11491;41.942;24.220;2023-12-07T03:07:11;20.65;;;12.18;;
22648;SDS011;11491;41.942;24.220;2023-12-07T03:09:37;13.30;;;9.55;;
22648;SDS011;11491;41.942;24.220;2023-12-07T03:12:04;24.60;;;13.50;;
22648;SDS011;11491;41.942;24.220;2023-12-07T03:14:32;21.80;;;13.07;;
22648;SDS011;11491;41.942;24.220;2023-12-07T03:17:00;11.23;;;7.32;;
22648;SDS011;11491;41.942;24.220;2023-12-07T03:19:27;10.15;;;6.88;;
22648;SDS011;11491;41.942;24.220;2023-12-07T03:21:54;8.88;;;6.38;;
22648;SDS011;11491;41.942;24.220;2023-12-07T03:24:20;9.02;;;6.28;;
22648;SDS011;11491;41.942;24.220;2023-12-07T03:26:47;7.57;;;5.40;;
22648;SDS011;11491;41.942;24.220;2023-12-07T03:29:14;4.93;;;3.88;;
22648;SDS011;11491;41.942;24.220;2023-12-07T03:31:41;5.53;;;4.15;;
22648;SDS011;11491;41.942;24.220;2023-12-07T03:34:09;5.63;;;4.45;;
22648;SDS011;11491;41.942;24.220;2023-12-07T03:36:37;11.50;;;6.60;;
22648;SDS011;11491;41.942;24.220;2023-12-07T03:39:04;16.48;;;10.07;;
22648;SDS011;11491;41.942;24.220;2023-12-07T03:41:31;14.98;;;9.20;;
22648;SDS011;11491;41.942;24.220;2023-12-07T03:43:57;16.88;;;9.48;;
22648;SDS011;11491;41.942;24.220;2023-12-07T03:46:24;14.15;;;8.38;;
22648;SDS011;11491;41.942;24.220;2023-12-07T03:48:51;12.98;;;8.40;;
22648;SDS011;11491;41.942;24.220;2023-12-07T03:51:19;13.43;;;9.23;;
22648;SDS011;11491;41.942;24.220;2023-12-07T03:53:46;15.30;;;8.77;;
22648;SDS011;11491;41.942;24.220;2023-12-07T03:56:21;14.52;;;8.57;;
22648;SDS011;11491;41.942;24.220;2023-12-07T03:58:49;15.40;;;8.77;;
22648;SDS011;11491;41.942;24.220;2023-12-07T04:01:15;12.10;;;8.27;;
22648;SDS011;11491;41.942;24.220;2023-12-07T04:03:42;13.75;;;8.45;;
22648;SDS011;11491;41.942;24.220;2023-12-07T04:06:09;13.02;;;9.13;;
22648;SDS011;11491;41.942;24.220;2023-12-07T04:08:37;16.20;;;10.85;;
22648;SDS011;11491;41.942;24.220;2023-12-07T04:11:04;13.15;;;9.65;;
22648;SDS011;11491;41.942;24.220;2023-12-07T04:13:30;14.50;;;10.32;;
22648;SDS011;11491;41.942;24.220;2023-12-07T04:15:57;16.55;;;11.43;;
22648;SDS011;11491;41.942;24.220;2023-12-07T04:18:24;24.30;;;16.40;;
22648;SDS011;11491;41.942;24.220;2023-12-07T04:20:51;27.35;;;19.70;;
22648;SDS011;11491;41.942;24.220;2023-12-07T04:23:18;18.95;;;13.50;;
22648;SDS011;11491;41.942;24.220;2023-12-07T04:25:46;18.88;;;14.80;;
22648;SDS011;11491;41.942;24.220;2023-12-07T04:28:13;21.10;;;15.73;;
22648;SDS011;11491;41.942;24.220;2023-12-07T04:30:39;18.83;;;14.35;;
22648;SDS011;11491;41.942;24.220;2023-12-07T04:33:06;25.60;;;17.70;;
22648;SDS011;11491;41.942;24.220;2023-12-07T04:35:33;19.48;;;14.32;;
22648;SDS011;11491;41.942;24.220;2023-12-07T04:38:01;16.73;;;12.13;;
22648;SDS011;11491;41.942;24.220;2023-12-07T04:40:28;19.08;;;13.23;;
22648;SDS011;11491;41.942;24.220;2023-12-07T04:42:56;18.63;;;14.60;;
22648;SDS011;11491;41.942;24.220;2023-12-07T04:45:22;21.70;;;15.27;;
22648;SDS011;11491;41.942;24.220;2023-12-07T04:47:49;44.22;;;29.90;;
22648;SDS011;11491;41.942;24.220;2023-12-07T04:50:16;55.85;;;37.50;;
22648;SDS011;11491;41.942;24.220;2023-12-07T04:52:42;68.72;;;43.55;;
22648;SDS011;11491;41.942;24.220;2023-12-07T04:55:09;63.20;;;39.00;;
22648;SDS011;11491;41.942;24.220;2023-12-07T04:57:36;33.75;;;22.83;;
22648;SDS011;11491;41.942;24.220;2023-12-07T05:00:05;30.75;;;22.10;;
22648;SDS011;11491;41.942;24.220;2023-12-07T05:02:34;40.17;;;26.27;;
22648;SDS011;11491;41.942;24.220;2023-12-07T05:05:01;47.55;;;32.97;;
22648;SDS011;11491;41.942;24.220;2023-12-07T05:07:27;56.25;;;36.95;;
22648;SDS011;11491;41.942;24.220;2023-12-07T05:09:54;82.47;;;49.90;;
22648;SDS011;11491;41.942;24.220;2023-12-07T05:12:21;55.92;;;36.42;;
22648;SDS011;11491;41.942;24.220;2023-12-07T05:14:48;37.95;;;27.33;;
22648;SDS011;11491;41.942;24.220;2023-12-07T05:17:16;40.60;;;28.08;;
22648;SDS011;11491;41.942;24.220;2023-12-07T05:19:43;46.60;;;30.08;;
22648;SDS011;11491;41.942;24.220;2023-12-07T05:22:10;42.00;;;26.75;;
22648;SDS011;11491;41.942;24.220;2023-12-07T05:24:37;41.88;;;26.58;;
22648;SDS011;11491;41.942;24.220;2023-12-07T05:27:04;23.10;;;16.63;;
22648;SDS011;11491;41.942;24.220;2023-12-07T05:29:31;22.13;;;14.98;;
22648;SDS011;11491;41.942;24.220;2023-12-07T05:31:58;19.35;;;14.00;;
22648;SDS011;11491;41.942;24.220;2023-12-07T05:34:26;21.67;;;14.75;;
22648;SDS011;11491;41.942;24.220;2023-12-07T05:36:53;24.27;;;15.07;;
22648;SDS011;11491;41.942;24.220;2023-12-07T05:39:19;13.82;;;9.82;;
22648;SDS011;11491;41.942;24.220;2023-12-07T05:41:46;15.57;;;10.20;;
22648;SDS011;11491;41.942;24.220;2023-12-07T05:44:13;13.73;;;10.07;;
22648;SDS011;11491;41.942;24.220;2023-12-07T05:46:46;10.63;;;8.50;;
22648;SDS011;11491;41.942;24.220;2023-12-07T05:49:13;13.20;;;8.80;;
22648;SDS011;11491;41.942;24.220;2023-12-07T05:51:41;18.90;;;13.05;;
22648;SDS011;11491;41.942;24.220;2023-12-07T05:54:08;25.95;;;18.38;;
22648;SDS011;11491;41.942;24.220;2023-12-07T05:56:35;59.85;;;40.08;;
22648;SDS011;11491;41.942;24.220;2023-12-07T05:59:01;64.03;;;44.60;;
22648;SDS011;11491;41.942;24.220;2023-12-07T06:01:28;94.70;;;60.95;;
22648;SDS011;11491;41.942;24.220;2023-12-07T06:03:55;114.88;;;73.72;;
22648;SDS011;11491;41.942;24.220;2023-12-07T06:06:22;123.70;;;82.97;;
22648;SDS011;11491;41.942;24.220;2023-12-07T06:08:50;84.30;;;55.70;;
22648;SDS011;11491;41.942;24.220;2023-12-07T06:11:17;88.30;;;57.80;;
22648;SDS011;11491;41.942;24.220;2023-12-07T06:13:44;93.10;;;58.83;;
22648;SDS011;11491;41.942;24.220;2023-12-07T06:16:13;96.25;;;57.63;;
22648;SDS011;11491;41.942;24.220;2023-12-07T06:18:42;87.88;;;52.72;;
22648;SDS011;11491;41.942;24.220;2023-12-07T06:21:08;85.68;;;54.47;;
22648;SDS011;11491;41.942;24.220;2023-12-07T06:23:35;109.00;;;63.88;;
22648;SDS011;11491;41.942;24.220;2023-12-07T06:26:03;167.73;;;100.47;;
22648;SDS011;11491;41.942;24.220;2023-12-07T06:28:30;129.05;;;78.82;;
22648;SDS011;11491;41.942;24.220;2023-12-07T06:31:04;155.65;;;92.45;;
22648;SDS011;11491;41.942;24.220;2023-12-07T06:33:32;142.77;;;85.05;;
22648;SDS011;11491;41.942;24.220;2023-12-07T06:35:59;150.27;;;90.88;;
22648;SDS011;11491;41.942;24.220;2023-12-07T06:38:26;118.32;;;67.32;;
22648;SDS011;11491;41.942;24.220;2023-12-07T06:40:53;118.53;;;67.10;;
22648;SDS011;11491;41.942;24.220;2023-12-07T06:43:22;113.20;;;62.83;;
22648;SDS011;11491;41.942;24.220;2023-12-07T06:45:49;160.40;;;89.25;;
22648;SDS011;11491;41.942;24.220;2023-12-07T06:48:16;167.80;;;96.35;;
22648;SDS011;11491;41.942;24.220;2023-12-07T06:50:43;163.48;;;96.72;;
22648;SDS011;11491;41.942;24.220;2023-12-07T06:53:09;146.80;;;89.90;;
22648;SDS011;11491;41.942;24.220;2023-12-07T06:55:36;126.07;;;78.55;;
22648;SDS011;11491;41.942;24.220;2023-12-07T06:58:03;99.95;;;59.88;;
22648;SDS011;11491;41.942;24.220;2023-12-07T07:00:31;90.20;;;55.95;;
22648;SDS011;11491;41.942;24.220;2023-12-07T07:02:58;144.65;;;93.70;;
22648;SDS011;11491;41.942;24.220;2023-12-07T07:05:25;133.13;;;85.50;;
22648;SDS011;11491;41.942;24.220;2023-12-07T07:07:52;119.00;;;76.32;;
22648;SDS011;11491;41.942;24.220;2023-12-07T07:10:20;132.13;;;77.72;;
22648;SDS011;11491;41.942;24.220;2023-12-07T07:12:47;143.77;;;86.93;;
22648;SDS011;11491;41.942;24.220;2023-12-07T07:15:14;135.60;;;76.40;;
22648;SDS011;11491;41.942;24.220;2023-12-07T07:17:41;118.47;;;67.18;;
22648;SDS011;11491;41.942;24.220;2023-12-07T07:20:08;80.45;;;46.58;;
22648;SDS011;11491;41.942;24.220;2023-12-07T07:22:35;74.13;;;42.60;;
22648;SDS011;11491;41.942;24.220;2023-12-07T07:25:02;81.18;;;50.58;;
22648;SDS011;11491;41.942;24.220;2023-12-07T07:27:31;90.18;;;55.25;;
22648;SDS011;11491;41.942;24.220;2023-12-07T07:29:59;90.22;;;56.50;;
22648;SDS011;11491;41.942;24.220;2023-12-07T07:32:25;135.93;;;87.38;;
22648;SDS011;11491;41.942;24.220;2023-12-07T07:34:53;134.70;;;82.90;;
22648;SDS011;11491;41.942;24.220;2023-12-07T07:37:20;143.07;;;94.03;;
22648;SDS011;11491;41.942;24.220;2023-12-07T07:39:47;140.43;;;90.40;;
22648;SDS011;11491;41.942;24.220;2023-12-07T07:42:13;156.75;;;97.63;;
22648;SDS011;11491;41.942;24.220;2023-12-07T07:44:41;158.65;;;103.25;;
22648;SDS011;11491;41.942;24.220;2023-12-07T07:47:08;157.68;;;101.38;;
22648;SDS011;11491;41.942;24.220;2023-12-07T07:49:35;150.38;;;99.18;;
22648;SDS011;11491;41.942;24.220;2023-12-07T07:52:04;147.07;;;98.90;;
22648;SDS011;11491;41.942;24.220;2023-12-07T07:54:31;145.70;;;96.70;;
22648;SDS011;11491;41.942;24.220;2023-12-07T07:56:57;143.23;;;96.05;;
22648;SDS011;11491;41.942;24.220;2023-12-07T07:59:24;137.15;;;92.75;;
22648;SDS011;11491;41.942;24.220;2023-12-07T08:01:52;159.60;;;105.97;;
22648;SDS011;11491;41.942;24.220;2023-12-07T08:04:18;151.02;;;104.95;;
22648;SDS011;11491;41.942;24.220;2023-12-07T08:06:45;163.07;;;111.30;;
22648;SDS011;11491;41.942;24.220;2023-12-07T08:09:13;151.63;;;103.78;;
22648;SDS011;11491;41.942;24.220;2023-12-07T08:11:40;148.68;;;103.88;;
22648;SDS011;11491;41.942;24.220;2023-12-07T08:14:07;119.47;;;79.82;;
22648;SDS011;11491;41.942;24.220;2023-12-07T08:16:34;97.88;;;69.57;;
22648;SDS011;11491;41.942;24.220;2023-12-07T08:19:01;140.60;;;96.45;;
22648;SDS011;11491;41.942;24.220;2023-12-07T08:21:27;129.13;;;89.30;;
22648;SDS011;11491;41.942;24.220;2023-12-07T08:23:55;124.50;;;87.75;;
22648;SDS011;11491;41.942;24.220;2023-12-07T08:26:23;70.10;;;52.72;;
22648;SDS011;11491;41.942;24.220;2023-12-07T08:28:52;61.17;;;45.17;;
22648;SDS011;11491;41.942;24.220;2023-12-07T08:31:19;37.60;;;27.83;;
22648;SDS011;11491;41.942;24.220;2023-12-07T08:33:48;39.22;;;28.80;;
22648;SDS011;11491;41.942;24.220;2023-12-07T08:36:14;30.70;;;23.23;;
22648;SDS011;11491;41.942;24.220;2023-12-07T08:38:41;23.35;;;15.95;;
22648;SDS011;11491;41.942;24.220;2023-12-07T08:41:08;27.08;;;20.20;;
22648;SDS011;11491;41.942;24.220;2023-12-07T08:43:36;49.03;;;36.30;;
22648;SDS011;11491;41.942;24.220;2023-12-07T08:46:03;34.38;;;21.52;;
22648;SDS011;11491;41.942;24.220;2023-12-07T08:48:32;31.85;;;23.33;;
22648;SDS011;11491;41.942;24.220;2023-12-07T08:50:59;28.30;;;17.77;;
22648;SDS011;11491;41.942;24.220;2023-12-07T08:53:27;16.30;;;12.30;;
22648;SDS011;11491;41.942;24.220;2023-12-07T08:55:53;17.83;;;11.38;;
22648;SDS011;11491;41.942;24.220;2023-12-07T08:58:20;18.55;;;13.68;;
22648;SDS011;11491;41.942;24.220;2023-12-07T09:00:49;22.38;;;16.88;;
22648;SDS011;11491;41.942;24.220;2023-12-07T09:03:15;19.58;;;14.25;;
22648;SDS011;11491;41.942;24.220;2023-12-07T09:05:42;19.20;;;14.50;;
22648;SDS011;11491;41.942;24.220;2023-12-07T09:08:09;21.13;;;16.45;;
22648;SDS011;11491;41.942;24.220;2023-12-07T09:10:36;22.98;;;15.77;;
22648;SDS011;11491;41.942;24.220;2023-12-07T09:13:02;34.05;;;24.67;;
22648;SDS011;11491;41.942;24.220;2023-12-07T09:15:29;17.63;;;13.23;;
22648;SDS011;11491;41.942;24.220;2023-12-07T09:17:58;11.93;;;8.35;;
22648;SDS011;11491;41.942;24.220;2023-12-07T09:20:25;22.50;;;15.35;;
22648;SDS011;11491;41.942;24.220;2023-12-07T09:22:52;33.67;;;23.85;;
22648;SDS011;11491;41.942;24.220;2023-12-07T09:25:20;44.55;;;28.33;;
22648;SDS011;11491;41.942;24.220;2023-12-07T09:27:47;60.67;;;39.08;;
22648;SDS011;11491;41.942;24.220;2023-12-07T09:30:14;34.45;;;19.85;;
22648;SDS011;11491;41.942;24.220;2023-12-07T09:32:41;42.47;;;28.50;;
22648;SDS011;11491;41.942;24.220;2023-12-07T09:35:10;24.77;;;15.25;;
22648;SDS011;11491;41.942;24.220;2023-12-07T09:37:39;31.83;;;22.15;;
22648;SDS011;11491;41.942;24.220;2023-12-07T09:40:07;29.70;;;20.92;;
22648;SDS011;11491;41.942;24.220;2023-12-07T09:42:34;40.95;;;26.52;;
22648;SDS011;11491;41.942;24.220;2023-12-07T09:45:01;24.05;;;17.55;;
22648;SDS011;11491;41.942;24.220;2023-12-07T09:47:29;21.25;;;14.60;;
22648;SDS011;11491;41.942;24.220;2023-12-07T09:49:57;20.08;;;13.18;;
22648;SDS011;11491;41.942;24.220;2023-12-07T09:52:26;21.17;;;10.73;;
22648;SDS011;11491;41.942;24.220;2023-12-07T09:54:53;32.47;;;23.05;;
22648;SDS011;11491;41.942;24.220;2023-12-07T09:57:23;35.88;;;25.95;;
22648;SDS011;11491;41.942;24.220;2023-12-07T09:59:49;30.00;;;23.58;;
22648;SDS011;11491;41.942;24.220;2023-12-07T10:02:16;22.63;;;18.58;;
22648;SDS011;11491;41.942;24.220;2023-12-07T10:04:43;14.20;;;11.68;;
22648;SDS011;11491;41.942;24.220;2023-12-07T10:07:10;13.88;;;10.93;;
22648;SDS011;11491;41.942;24.220;2023-12-07T10:09:39;12.57;;;8.88;;
22648;SDS011;11491;41.942;24.220;2023-12-07T10:12:06;16.15;;;13.20;;
22648;SDS011;11491;41.942;24.220;2023-12-07T10:14:34;24.00;;;15.57;;
22648;SDS011;11491;41.942;24.220;2023-12-07T10:17:01;24.85;;;17.75;;
22648;SDS011;11491;41.942;24.220;2023-12-07T10:19:29;32.05;;;27.08;;
22648;SDS011;11491;41.942;24.220;2023-12-07T10:21:56;19.38;;;15.88;;
22648;SDS011;11491;41.942;24.220;2023-12-07T10:24:24;18.50;;;14.68;;
22648;SDS011;11491;41.942;24.220;2023-12-07T10:26:53;20.00;;;16.73;;
22648;SDS011;11491;41.942;24.220;2023-12-07T10:29:21;17.75;;;12.07;;
22648;SDS011;11491;41.942;24.220;2023-12-07T10:31:49;17.75;;;14.57;;
22648;SDS011;11491;41.942;24.220;2023-12-07T10:34:17;22.98;;;17.88;;
22648;SDS011;11491;41.942;24.220;2023-12-07T10:36:45;17.98;;;13.35;;
22648;SDS011;11491;41.942;24.220;2023-12-07T10:39:13;26.92;;;19.35;;
22648;SDS011;11491;41.942;24.220;2023-12-07T10:41:40;21.83;;;17.48;;
22648;SDS011;11491;41.942;24.220;2023-12-07T10:44:11;15.45;;;12.02;;
22648;SDS011;11491;41.942;24.220;2023-12-07T10:46:41;17.90;;;11.95;;
22648;SDS011;11491;41.942;24.220;2023-12-07T10:49:10;18.75;;;14.88;;
22648;SDS011;11491;41.942;24.220;2023-12-07T10:51:45;13.50;;;10.88;;
22648;SDS011;11491;41.942;24.220;2023-12-07T10:56:48;19.98;;;13.88;;
22648;SDS011;11491;41.942;24.220;2023-12-07T10:59:16;16.65;;;10.95;;
22648;SDS011;11491;41.942;24.220;2023-12-07T11:01:44;19.15;;;14.40;;
22648;SDS011;11491;41.942;24.220;2023-12-07T11:04:12;14.32;;;10.70;;
22648;SDS011;11491;41.942;24.220;2023-12-07T11:06:40;15.25;;;9.60;;
22648;SDS011;11491;41.942;24.220;2023-12-07T11:09:08;16.55;;;10.82;;
22648;SDS011;11491;41.942;24.220;2023-12-07T11:11:41;19.17;;;12.60;;
22648;SDS011;11491;41.942;24.220;2023-12-07T11:14:13;13.63;;;10.20;;
22648;SDS011;11491;41.942;24.220;2023-12-07T11:16:45;23.13;;;16.95;;
22648;SDS011;11491;41.942;24.220;2023-12-07T11:22:15;28.60;;;20.42;;
22648;SDS011;11491;41.942;24.220;2023-12-07T11:24:54;22.63;;;15.65;;
22648;SDS011;11491;41.942;24.220;2023-12-07T11:27:22;20.40;;;14.05;;
22648;SDS011;11491;41.942;24.220;2023-12-07T11:29:50;27.75;;;21.13;;
22648;SDS011;11491;41.942;24.220;2023-12-07T11:32:19;32.78;;;22.02;;
22648;SDS011;11491;41.942;24.220;2023-12-07T11:34:46;31.63;;;24.17;;
22648;SDS011;11491;41.942;24.220;2023-12-07T11:37:14;27.58;;;21.23;;
22648;SDS011;11491;41.942;24.220;2023-12-07T11:39:42;72.07;;;46.03;;
22648;SDS011;11491;41.942;24.220;2023-12-07T11:42:11;38.97;;;28.08;;
22648;SDS011;11491;41.942;24.220;2023-12-07T11:44:38;24.58;;;18.15;;
22648;SDS011;11491;41.942;24.220;2023-12-07T11:47:06;25.80;;;20.60;;
22648;SDS011;11491;41.942;24.220;2023-12-07T11:49:34;33.72;;;25.73;;
22648;SDS011;11491;41.942;24.220;2023-12-07T11:52:08;42.67;;;32.00;;
22648;SDS011;11491;41.942;24.220;2023-12-07T11:54:38;28.42;;;24.23;;
22648;SDS011;11491;41.942;24.220;2023-12-07T11:57:05;41.72;;;33.03;;
22648;SDS011;11491;41.942;24.220;2023-12-07T11:59:32;34.03;;;23.25;;
22648;SDS011;11491;41.942;24.220;2023-12-07T12:01:59;46.80;;;32.22;;
22648;SDS011;11491;41.942;24.220;2023-12-07T12:04:27;39.40;;;28.77;;
22648;SDS011;11491;41.942;24.220;2023-12-07T12:06:56;38.78;;;26.92;;
22648;SDS011;11491;41.942;24.220;2023-12-07T12:09:23;40.17;;;28.90;;
22648;SDS011;11491;41.942;24.220;2023-12-07T12:11:50;41.30;;;28.75;;
22648;SDS011;11491;41.942;24.220;2023-12-07T12:14:17;74.38;;;47.25;;
22648;SDS011;11491;41.942;24.220;2023-12-07T12:16:45;98.60;;;57.75;;
22648;SDS011;11491;41.942;24.220;2023-12-07T12:19:12;43.53;;;31.35;;
22648;SDS011;11491;41.942;24.220;2023-12-07T12:21:39;100.43;;;68.00;;
22648;SDS011;11491;41.942;24.220;2023-12-07T12:24:10;37.85;;;26.00;;
22648;SDS011;11491;41.942;24.220;2023-12-07T12:26:37;44.10;;;31.92;;
22648;SDS011;11491;41.942;24.220;2023-12-07T12:29:06;33.92;;;25.20;;
22648;SDS011;11491;41.942;24.220;2023-12-07T12:31:33;17.15;;;13.25;;
22648;SDS011;11491;41.942;24.220;2023-12-07T12:34:00;27.15;;;20.88;;
22648;SDS011;11491;41.942;24.220;2023-12-07T12:36:27;11.20;;;8.80;;
22648;SDS011;11491;41.942;24.220;2023-12-07T12:38:55;8.70;;;7.78;;
22648;SDS011;11491;41.942;24.220;2023-12-07T12:41:23;9.63;;;6.28;;
22648;SDS011;11491;41.942;24.220;2023-12-07T12:43:50;12.13;;;10.63;;
22648;SDS011;11491;41.942;24.220;2023-12-07T12:46:18;8.10;;;7.25;;
22648;SDS011;11491;41.942;24.220;2023-12-07T12:48:54;4.97;;;3.92;;
22648;SDS011;11491;41.942;24.220;2023-12-07T12:51:23;6.93;;;6.22;;
22648;SDS011;11491;41.942;24.220;2023-12-07T12:53:51;7.00;;;5.57;;
22648;SDS011;11491;41.942;24.220;2023-12-07T12:56:20;22.08;;;16.42;;
22648;SDS011;11491;41.942;24.220;2023-12-07T12:58:49;18.45;;;11.10;;
22648;SDS011;11491;41.942;24.220;2023-12-07T13:01:15;17.42;;;12.45;;
22648;SDS011;11491;41.942;24.220;2023-12-07T13:03:43;20.70;;;16.35;;
22648;SDS011;11491;41.942;24.220;2023-12-07T13:06:12;25.83;;;21.20;;
22648;SDS011;11491;41.942;24.220;2023-12-07T13:08:39;24.50;;;20.15;;
22648;SDS011;11491;41.942;24.220;2023-12-07T13:11:06;40.72;;;29.30;;
22648;SDS011;11491;41.942;24.220;2023-12-07T13:13:33;46.95;;;33.67;;
22648;SDS011;11491;41.942;24.220;2023-12-07T13:16:02;69.55;;;49.80;;
22648;SDS011;11491;41.942;24.220;2023-12-07T13:18:29;31.38;;;24.05;;
22648;SDS011;11491;41.942;24.220;2023-12-07T13:20:56;43.83;;;33.28;;
22648;SDS011;11491;41.942;24.220;2023-12-07T13:23:24;25.35;;;18.17;;
22648;SDS011;11491;41.942;24.220;2023-12-07T13:25:51;12.35;;;9.02;;
22648;SDS011;11491;41.942;24.220;2023-12-07T13:28:19;16.73;;;12.82;;
22648;SDS011;11491;41.942;24.220;2023-12-07T13:30:46;36.70;;;26.60;;
22648;SDS011;11491;41.942;24.220;2023-12-07T13:33:14;28.00;;;17.90;;
22648;SDS011;11491;41.942;24.220;2023-12-07T13:35:40;27.15;;;17.08;;
22648;SDS011;11491;41.942;24.220;2023-12-07T13:38:07;40.22;;;18.92;;
22648;SDS011;11491;41.942;24.220;2023-12-07T13:40:34;54.33;;;37.35;;
22648;SDS011;11491;41.942;24.220;2023-12-07T13:43:02;30.88;;;24.05;;
22648;SDS011;11491;41.942;24.220;2023-12-07T13:45:29;31.80;;;24.05;;
22648;SDS011;11491;41.942;24.220;2023-12-07T13:47:56;32.40;;;23.95;;
22648;SDS011;11491;41.942;24.220;2023-12-07T13:50:25;53.47;;;44.25;;
22648;SDS011;11491;41.942;24.220;2023-12-07T13:52:52;75.05;;;51.38;;
22648;SDS011;11491;41.942;24.220;2023-12-07T13:55:19;34.10;;;25.42;;
22648;SDS011;11491;41.942;24.220;2023-12-07T13:57:46;27.98;;;22.05;;
22648;SDS011;11491;41.942;24.220;2023-12-07T14:00:13;19.52;;;14.63;;
22648;SDS011;11491;41.942;24.220;2023-12-07T14:02:40;32.10;;;25.73;;
22648;SDS011;11491;41.942;24.220;2023-12-07T14:05:08;28.70;;;20.38;;
22648;SDS011;11491;41.942;24.220;2023-12-07T14:07:36;51.90;;;34.97;;
22648;SDS011;11491;41.942;24.220;2023-12-07T14:10:03;50.08;;;35.30;;
22648;SDS011;11491;41.942;24.220;2023-12-07T14:12:30;51.70;;;35.53;;
22648;SDS011;11491;41.942;24.220;2023-12-07T14:14:58;47.53;;;32.63;;
22648;SDS011;11491;41.942;24.220;2023-12-07T14:17:25;52.55;;;37.22;;
22648;SDS011;11491;41.942;24.220;2023-12-07T14:19:52;55.67;;;39.67;;